createdAt,value
2022-11-04T00:03:12.406Z,9.2
2022-11-04T00:18:21.981Z,10
2022-11-04T00:33:31.476Z,7.4
2022-11-04T00:48:42.152Z,11.7
2022-11-04T01:03:51.672Z,6.9
2022-11-04T01:19:00.888Z,5.1
2022-11-04T01:34:10.351Z,6.1
2022-11-04T01:49:19.806Z,6.2
2022-11-04T02:04:29.027Z,7.8
2022-11-04T02:19:38.706Z,4.8
2022-11-04T02:34:48.799Z,6.7
2022-11-04T02:49:58.658Z,4.1
2022-11-04T03:05:07.839Z,3.1
2022-11-04T03:20:16.570Z,1.8
2022-11-04T03:35:25.943Z,2.4
2022-11-04T03:50:35.608Z,2.9
2022-11-04T04:05:45.299Z,4.5
2022-11-04T04:20:54.045Z,4.6
2022-11-04T04:36:03.041Z,5.1
2022-11-04T04:51:12.939Z,5.6
2022-11-04T05:06:22.539Z,6.4
2022-11-04T05:21:32.250Z,6.7
2022-11-04T05:36:42.795Z,7
2022-11-04T05:51:52.645Z,7.9
2022-11-04T06:07:01.992Z,9.1
2022-11-04T06:22:11.721Z,10.9
2022-11-04T06:37:20.990Z,8.6
2022-11-04T06:52:30.848Z,7.8
2022-11-04T07:07:41.092Z,8.7
2022-11-04T07:22:51.549Z,9.2
2022-11-04T07:38:01.790Z,8.6
2022-11-04T07:53:12.744Z,6.8
2022-11-04T08:08:22.553Z,5.6
2022-11-04T08:23:31.957Z,8.4
2022-11-04T08:38:44.094Z,6.3
2022-11-04T08:53:53.727Z,5.6
2022-11-04T09:09:03.546Z,7
2022-11-04T09:24:13.630Z,6.1
2022-11-04T09:39:23.484Z,10.7
2022-11-04T09:54:33.708Z,5.9
2022-11-04T10:09:45.153Z,12.2
2022-11-04T10:24:58.142Z,10.5
2022-11-04T10:40:08.643Z,8.1
2022-11-04T10:55:20.845Z,11.6
2022-11-04T11:10:31.194Z,7.8
2022-11-04T11:25:40.754Z,10.2
2022-11-04T11:41:26.205Z,6.1
2022-11-04T11:57:15.944Z,9.5
2022-11-04T12:12:34.361Z,6.2
2022-11-04T12:27:44.322Z,5.7
2022-11-04T12:42:53.808Z,8.2
2022-11-04T12:58:03.569Z,5.8
2022-11-04T13:13:13.533Z,5.5
2022-11-04T13:28:23.530Z,3.8
2022-11-04T13:43:33.211Z,5.4
2022-11-04T13:58:47.434Z,6
2022-11-04T14:13:56.911Z,5.2
2022-11-04T14:29:06.174Z,4.7
2022-11-04T14:44:15.537Z,4.6
2022-11-04T14:59:25.422Z,7.6
2022-11-04T15:14:35.041Z,5.9
2022-11-04T15:29:44.944Z,5.6
2022-11-04T15:44:54.689Z,10
2022-11-04T16:00:04.476Z,14.1
2022-11-04T16:15:17.971Z,9.6
2022-11-04T16:30:28.336Z,11.7
2022-11-04T16:45:41.104Z,6.2
2022-11-04T17:00:51.232Z,7
2022-11-04T17:16:01.787Z,10.6
2022-11-04T17:31:11.281Z,11.6
2022-11-04T17:46:20.972Z,12.5
2022-11-04T18:01:30.908Z,18.1
2022-11-04T18:16:41.994Z,14.6
2022-11-04T18:31:51.330Z,12.7
2022-11-04T18:47:01.420Z,11.7
2022-11-04T19:02:12.874Z,16
2022-11-04T19:17:23.146Z,12
2022-11-04T19:32:32.168Z,10.5
2022-11-04T19:47:41.439Z,11
2022-11-04T20:02:51.545Z,10.4
2022-11-04T20:18:01.952Z,18.4
2022-11-04T20:33:12.197Z,13.8
2022-11-04T20:48:21.881Z,13.6
2022-11-04T21:03:31.039Z,16.4
2022-11-04T21:18:40.233Z,15.1
2022-11-04T21:33:49.834Z,15.2
2022-11-04T21:48:59.294Z,18.2
2022-11-04T22:04:09.034Z,15.2
2022-11-04T22:19:18.748Z,16
2022-11-04T22:34:28.346Z,18.5
2022-11-04T22:49:38.512Z,15.3
2022-11-04T23:04:49.057Z,18.5
2022-11-04T23:19:58.722Z,23.8
2022-11-04T23:35:08.990Z,21.6
2022-11-04T23:50:18.698Z,14.9
